AAL706 KPHL-KRDU
Flight info
| Callsign | AAL706 |
|---|---|
| Flight time | 1h 2m |
| Altitude | 32000 |
| Route | OOD TEBEE HAYDO TRPOD TAQLE3 |
| Aircraft | B738/M-SDE2E3FGHIRWXY/LB1 |
Departure
| Time | 2026-05-07 00:32 |
|---|---|
| Airport | Philadelphia International Airport (KPHL) |
Arrival
| Time | 2026-05-07 01:35 |
|---|---|
| Airport | Raleigh-Durham International Airport (KRDU) |
| Time | Latitude | Longitude | Altitude | Speed | Heading |
|---|---|---|---|---|---|
| 2026-05-07 00:06 | 39.87477 | -75.24321 | 24 ft | 0 kts | 278° |
| 2026-05-07 00:24 | 39.87476 | -75.24309 | 25 ft | 4 kts | 278° |
| 2026-05-07 00:24 | 39.87473 | -75.24281 | 29 ft | 4 kts | 271° |
| 2026-05-07 00:24 | 39.87478 | -75.24256 | 30 ft | 4 kts | 200° |
| 2026-05-07 00:25 | 39.87501 | -75.24258 | 30 ft | 4 kts | 165° |
| 2026-05-07 00:25 | 39.87510 | -75.24261 | 28 ft | 0 kts | 165° |
| 2026-05-07 00:27 | 39.87504 | -75.24259 | 29 ft | 3 kts | 165° |
| 2026-05-07 00:28 | 39.87462 | -75.24245 | 28 ft | 9 kts | 165° |
| 2026-05-07 00:28 | 39.87385 | -75.24231 | 26 ft | 13 kts | 174° |
| 2026-05-07 00:28 | 39.87293 | -75.24191 | 25 ft | 14 kts | 152° |
| 2026-05-07 00:28 | 39.87207 | -75.24133 | 26 ft | 14 kts | 152° |
| 2026-05-07 00:29 | 39.87120 | -75.24088 | 27 ft | 14 kts | 167° |
| 2026-05-07 00:29 | 39.87018 | -75.24055 | 25 ft | 17 kts | 165° |
| 2026-05-07 00:30 | 39.86945 | -75.23767 | 26 ft | 14 kts | 76° |
| 2026-05-07 00:30 | 39.86970 | -75.23635 | 24 ft | 17 kts | 76° |
| 2026-05-07 00:30 | 39.87000 | -75.23487 | 27 ft | 13 kts | 76° |
| 2026-05-07 00:30 | 39.86993 | -75.23433 | 25 ft | 2 kts | 133° |
| 2026-05-07 00:31 | 39.86984 | -75.23425 | 26 ft | 2 kts | 148° |
| 2026-05-07 00:31 | 39.86936 | -75.23406 | 27 ft | 12 kts | 174° |
| 2026-05-07 00:31 | 39.86890 | -75.23467 | 24 ft | 7 kts | 255° |
| 2026-05-07 00:31 | 39.86885 | -75.23492 | 28 ft | 11 kts | 255° |
| 2026-05-07 00:32 | 39.86801 | -75.23911 | 25 ft | 85 kts | 255° |
| 2026-05-07 00:32 | 39.86595 | -75.24939 | 27 ft | 147 kts | 255° |
| 2026-05-07 00:32 | 39.86319 | -75.26387 | 393 ft | 168 kts | 255° |
| 2026-05-07 00:32 | 39.86053 | -75.27793 | 1475 ft | 152 kts | 251° |
| 2026-05-07 00:33 | 39.85512 | -75.28955 | 2280 ft | 164 kts | 227° |
| 2026-05-07 00:33 | 39.84487 | -75.29910 | 2623 ft | 193 kts | 218° |
| 2026-05-07 00:33 | 39.83307 | -75.30942 | 2862 ft | 217 kts | 218° |
| 2026-05-07 00:33 | 39.81953 | -75.31930 | 3493 ft | 217 kts | 207° |
| 2026-05-07 00:34 | 39.80625 | -75.32419 | 4907 ft | 190 kts | 194° |
| 2026-05-07 00:34 | 39.79252 | -75.32479 | 5483 ft | 211 kts | 187° |
| 2026-05-07 00:34 | 39.77699 | -75.32466 | 5740 ft | 240 kts | 187° |
| 2026-05-07 00:34 | 39.75934 | -75.32478 | 6073 ft | 264 kts | 187° |
| 2026-05-07 00:35 | 39.74067 | -75.32528 | 6822 ft | 269 kts | 188° |
| 2026-05-07 00:35 | 39.72194 | -75.32616 | 7663 ft | 271 kts | 189° |
| 2026-05-07 00:35 | 39.70312 | -75.32740 | 8532 ft | 271 kts | 190° |
| 2026-05-07 00:35 | 39.68417 | -75.32891 | 9418 ft | 272 kts | 191° |
| 2026-05-07 00:36 | 39.66544 | -75.33061 | 10178 ft | 276 kts | 191° |
| 2026-05-07 00:36 | 39.64571 | -75.33261 | 10511 ft | 297 kts | 192° |
| 2026-05-07 00:36 | 39.62429 | -75.33494 | 10698 ft | 320 kts | 191° |
| 2026-05-07 00:36 | 39.60151 | -75.33742 | 11158 ft | 333 kts | 191° |
| 2026-05-07 00:37 | 39.57831 | -75.33991 | 11876 ft | 336 kts | 191° |
| 2026-05-07 00:37 | 39.55488 | -75.34242 | 12632 ft | 340 kts | 192° |
| 2026-05-07 00:37 | 39.53121 | -75.34500 | 13393 ft | 343 kts | 192° |
| 2026-05-07 00:37 | 39.50724 | -75.34764 | 14131 ft | 347 kts | 192° |
| 2026-05-07 00:38 | 39.48303 | -75.35033 | 14790 ft | 352 kts | 192° |
| 2026-05-07 00:38 | 39.45845 | -75.35308 | 15469 ft | 358 kts | 192° |
| 2026-05-07 00:38 | 39.43348 | -75.35587 | 16155 ft | 362 kts | 193° |
| 2026-05-07 00:38 | 39.40813 | -75.35870 | 16830 ft | 367 kts | 193° |
| 2026-05-07 00:39 | 39.38275 | -75.36153 | 17473 ft | 372 kts | 193° |
| 2026-05-07 00:39 | 39.35675 | -75.36443 | 18124 ft | 377 kts | 193° |
| 2026-05-07 00:39 | 39.33041 | -75.36736 | 18686 ft | 382 kts | 194° |
| 2026-05-07 00:39 | 39.30348 | -75.37033 | 19325 ft | 384 kts | 194° |
| 2026-05-07 00:40 | 39.27712 | -75.37324 | 19943 ft | 386 kts | 195° |
| 2026-05-07 00:40 | 39.25024 | -75.37622 | 20561 ft | 389 kts | 195° |
| 2026-05-07 00:40 | 39.22317 | -75.37923 | 21149 ft | 392 kts | 195° |
| 2026-05-07 00:40 | 39.19590 | -75.38241 | 21714 ft | 394 kts | 197° |
| 2026-05-07 00:41 | 39.16867 | -75.38672 | 22278 ft | 394 kts | 199° |
| 2026-05-07 00:41 | 39.14147 | -75.39171 | 22835 ft | 396 kts | 199° |
| 2026-05-07 00:41 | 39.12333 | -75.39515 | 23202 ft | 398 kts | 200° |
| 2026-05-07 00:41 | 39.08653 | -75.40211 | 23828 ft | 402 kts | 200° |
| 2026-05-07 00:42 | 39.06813 | -75.40554 | 24119 ft | 404 kts | 200° |
| 2026-05-07 00:42 | 39.04011 | -75.41067 | 24568 ft | 406 kts | 200° |
| 2026-05-07 00:42 | 39.01207 | -75.41573 | 25011 ft | 408 kts | 199° |
| 2026-05-07 00:42 | 38.98383 | -75.42078 | 25442 ft | 411 kts | 199° |
| 2026-05-07 00:43 | 38.95543 | -75.42582 | 25854 ft | 413 kts | 199° |
| 2026-05-07 00:43 | 38.92686 | -75.43089 | 26254 ft | 416 kts | 199° |
| 2026-05-07 00:43 | 38.89800 | -75.43599 | 26673 ft | 419 kts | 199° |
| 2026-05-07 00:43 | 38.86899 | -75.44111 | 27069 ft | 421 kts | 199° |
| 2026-05-07 00:44 | 38.84024 | -75.44618 | 27449 ft | 423 kts | 199° |
| 2026-05-07 00:44 | 38.81097 | -75.45135 | 27825 ft | 426 kts | 199° |
| 2026-05-07 00:44 | 38.78156 | -75.45653 | 28225 ft | 427 kts | 199° |
| 2026-05-07 00:44 | 38.75210 | -75.46168 | 28755 ft | 425 kts | 199° |
| 2026-05-07 00:45 | 38.72285 | -75.46678 | 29375 ft | 422 kts | 200° |
| 2026-05-07 00:45 | 38.69389 | -75.47182 | 29985 ft | 418 kts | 200° |
| 2026-05-07 00:45 | 38.66512 | -75.47686 | 30441 ft | 417 kts | 200° |
| 2026-05-07 00:45 | 38.63639 | -75.48192 | 30836 ft | 417 kts | 200° |
| 2026-05-07 00:46 | 38.60765 | -75.48699 | 31235 ft | 417 kts | 200° |
| 2026-05-07 00:46 | 38.57894 | -75.49204 | 31672 ft | 415 kts | 200° |
| 2026-05-07 00:46 | 38.55030 | -75.49708 | 31869 ft | 417 kts | 200° |
| 2026-05-07 00:46 | 38.52162 | -75.50211 | 31879 ft | 415 kts | 200° |
| 2026-05-07 00:47 | 38.46443 | -75.51211 | 31884 ft | 415 kts | 200° |
| 2026-05-07 00:47 | 38.40720 | -75.52211 | 31887 ft | 415 kts | 200° |
| 2026-05-07 00:48 | 38.35203 | -75.53789 | 31891 ft | 393 kts | 215° |
| 2026-05-07 00:48 | 38.30681 | -75.57303 | 31886 ft | 376 kts | 231° |
| 2026-05-07 00:49 | 38.26928 | -75.61939 | 31886 ft | 377 kts | 233° |
| 2026-05-07 00:49 | 38.23185 | -75.66631 | 31889 ft | 378 kts | 232° |
| 2026-05-07 00:50 | 38.19429 | -75.71280 | 31881 ft | 375 kts | 229° |
| 2026-05-07 00:50 | 38.17097 | -75.72934 | 31894 ft | 401 kts | 207° |
| 2026-05-07 00:50 | 38.14235 | -75.73367 | 31911 ft | 427 kts | 192° |
| 2026-05-07 00:51 | 38.08221 | -75.72898 | 31905 ft | 434 kts | 188° |
| 2026-05-07 00:51 | 38.02320 | -75.73147 | 31902 ft | 414 kts | 202° |
| 2026-05-07 00:52 | 37.96931 | -75.75202 | 31914 ft | 398 kts | 212° |
| 2026-05-07 00:52 | 37.91882 | -75.78034 | 31904 ft | 396 kts | 215° |
| 2026-05-07 00:53 | 37.86885 | -75.81011 | 31913 ft | 398 kts | 215° |
| 2026-05-07 00:53 | 37.81904 | -75.83949 | 31539 ft | 395 kts | 214° |
| 2026-05-07 00:54 | 37.79423 | -75.85396 | 31292 ft | 391 kts | 214° |
| 2026-05-07 00:54 | 37.76968 | -75.86824 | 31046 ft | 387 kts | 214° |
| 2026-05-07 00:54 | 37.74518 | -75.88252 | 30807 ft | 387 kts | 214° |
| 2026-05-07 00:54 | 37.72072 | -75.89676 | 30568 ft | 387 kts | 213° |
| 2026-05-07 00:55 | 37.69626 | -75.91100 | 30343 ft | 387 kts | 213° |
| 2026-05-07 00:55 | 37.67183 | -75.92520 | 30109 ft | 386 kts | 212° |
| 2026-05-07 00:55 | 37.64738 | -75.93939 | 29856 ft | 386 kts | 212° |
| 2026-05-07 00:55 | 37.62296 | -75.95364 | 29584 ft | 384 kts | 214° |
| 2026-05-07 00:56 | 37.60112 | -75.97194 | 29288 ft | 372 kts | 228° |
| 2026-05-07 00:56 | 37.58376 | -75.99553 | 29039 ft | 365 kts | 235° |
| 2026-05-07 00:56 | 37.56777 | -76.02035 | 28772 ft | 364 kts | 236° |
| 2026-05-07 00:56 | 37.55203 | -76.04536 | 28501 ft | 363 kts | 236° |
| 2026-05-07 00:57 | 37.53638 | -76.07026 | 28239 ft | 362 kts | 236° |
| 2026-05-07 00:57 | 37.52066 | -76.09508 | 27976 ft | 361 kts | 236° |
| 2026-05-07 00:57 | 37.50499 | -76.11964 | 27718 ft | 359 kts | 236° |
| 2026-05-07 00:57 | 37.48950 | -76.14379 | 27463 ft | 358 kts | 236° |
| 2026-05-07 00:58 | 37.47387 | -76.16807 | 27208 ft | 356 kts | 236° |
| 2026-05-07 00:58 | 37.45827 | -76.19224 | 26956 ft | 354 kts | 236° |
| 2026-05-07 00:58 | 37.44272 | -76.21630 | 26703 ft | 353 kts | 236° |
| 2026-05-07 00:58 | 37.42726 | -76.24019 | 26461 ft | 352 kts | 236° |
| 2026-05-07 00:59 | 37.39647 | -76.28771 | 25978 ft | 349 kts | 236° |
| 2026-05-07 00:59 | 37.38116 | -76.31133 | 25735 ft | 348 kts | 236° |
| 2026-05-07 00:59 | 37.36588 | -76.33487 | 25498 ft | 347 kts | 237° |
| 2026-05-07 01:00 | 37.35069 | -76.35827 | 25265 ft | 345 kts | 237° |
| 2026-05-07 01:00 | 37.33604 | -76.38184 | 25030 ft | 338 kts | 238° |
| 2026-05-07 01:00 | 37.32204 | -76.40520 | 24788 ft | 330 kts | 240° |
| 2026-05-07 01:00 | 37.31004 | -76.42912 | 24558 ft | 320 kts | 245° |
| 2026-05-07 01:01 | 37.29911 | -76.45306 | 24322 ft | 312 kts | 246° |
| 2026-05-07 01:01 | 37.28852 | -76.47662 | 24085 ft | 307 kts | 246° |
| 2026-05-07 01:01 | 37.27808 | -76.49988 | 23864 ft | 302 kts | 246° |
| 2026-05-07 01:01 | 37.26793 | -76.52243 | 23648 ft | 299 kts | 246° |
| 2026-05-07 01:02 | 37.25763 | -76.54527 | 23419 ft | 302 kts | 246° |
| 2026-05-07 01:02 | 37.24721 | -76.56841 | 23151 ft | 307 kts | 246° |
| 2026-05-07 01:02 | 37.23674 | -76.59177 | 22886 ft | 306 kts | 246° |
| 2026-05-07 01:02 | 37.22636 | -76.61498 | 22623 ft | 304 kts | 246° |
| 2026-05-07 01:03 | 37.21593 | -76.63837 | 22359 ft | 302 kts | 246° |
| 2026-05-07 01:03 | 37.20582 | -76.66110 | 22101 ft | 301 kts | 246° |
| 2026-05-07 01:03 | 37.19568 | -76.68396 | 21850 ft | 300 kts | 246° |
| 2026-05-07 01:03 | 37.18558 | -76.70678 | 21592 ft | 299 kts | 246° |
| 2026-05-07 01:04 | 37.17555 | -76.72955 | 21339 ft | 298 kts | 246° |
| 2026-05-07 01:04 | 37.16554 | -76.75234 | 21090 ft | 297 kts | 246° |
| 2026-05-07 01:04 | 37.15562 | -76.77502 | 20845 ft | 297 kts | 246° |
| 2026-05-07 01:04 | 37.14568 | -76.79779 | 20599 ft | 297 kts | 246° |
| 2026-05-07 01:05 | 37.13580 | -76.82050 | 20355 ft | 297 kts | 246° |
| 2026-05-07 01:05 | 37.12593 | -76.84323 | 20114 ft | 296 kts | 246° |
| 2026-05-07 01:05 | 37.11612 | -76.86589 | 19967 ft | 296 kts | 246° |
| 2026-05-07 01:05 | 37.10631 | -76.88859 | 19946 ft | 296 kts | 246° |
| 2026-05-07 01:06 | 37.09666 | -76.91091 | 19943 ft | 294 kts | 246° |
| 2026-05-07 01:06 | 37.08690 | -76.93347 | 19934 ft | 295 kts | 246° |
| 2026-05-07 01:06 | 37.07712 | -76.95611 | 19932 ft | 296 kts | 246° |
| 2026-05-07 01:06 | 37.06734 | -76.97879 | 19941 ft | 296 kts | 246° |
| 2026-05-07 01:07 | 37.05756 | -77.00150 | 19932 ft | 296 kts | 246° |
| 2026-05-07 01:07 | 37.04779 | -77.02419 | 19926 ft | 296 kts | 246° |
| 2026-05-07 01:07 | 37.03801 | -77.04690 | 19937 ft | 296 kts | 246° |
| 2026-05-07 01:07 | 37.02822 | -77.06963 | 19939 ft | 296 kts | 246° |
| 2026-05-07 01:08 | 37.01845 | -77.09235 | 19936 ft | 297 kts | 246° |
| 2026-05-07 01:08 | 37.00868 | -77.11511 | 19936 ft | 297 kts | 246° |
| 2026-05-07 01:08 | 36.99890 | -77.13792 | 19934 ft | 297 kts | 246° |
| 2026-05-07 01:08 | 36.98914 | -77.16073 | 19934 ft | 298 kts | 246° |
| 2026-05-07 01:09 | 36.97935 | -77.18359 | 19928 ft | 298 kts | 246° |
| 2026-05-07 01:09 | 36.96959 | -77.20643 | 19932 ft | 298 kts | 246° |
| 2026-05-07 01:09 | 36.95983 | -77.22931 | 19923 ft | 298 kts | 246° |
| 2026-05-07 01:09 | 36.95008 | -77.25221 | 19921 ft | 298 kts | 246° |
| 2026-05-07 01:10 | 36.94035 | -77.27512 | 19923 ft | 298 kts | 246° |
| 2026-05-07 01:10 | 36.93063 | -77.29800 | 19924 ft | 298 kts | 246° |
| 2026-05-07 01:10 | 36.92091 | -77.32092 | 19921 ft | 299 kts | 246° |
| 2026-05-07 01:10 | 36.91117 | -77.34391 | 19929 ft | 299 kts | 246° |
| 2026-05-07 01:11 | 36.90148 | -77.36684 | 19933 ft | 299 kts | 246° |
| 2026-05-07 01:11 | 36.89176 | -77.38982 | 19939 ft | 299 kts | 246° |
| 2026-05-07 01:11 | 36.88218 | -77.41254 | 19936 ft | 299 kts | 246° |
| 2026-05-07 01:11 | 36.87245 | -77.43563 | 19937 ft | 299 kts | 246° |
| 2026-05-07 01:12 | 36.86276 | -77.45867 | 19942 ft | 299 kts | 246° |
| 2026-05-07 01:12 | 36.85310 | -77.48166 | 19944 ft | 299 kts | 247° |
| 2026-05-07 01:12 | 36.84357 | -77.50436 | 19944 ft | 299 kts | 246° |
| 2026-05-07 01:12 | 36.83394 | -77.52731 | 19943 ft | 298 kts | 247° |
| 2026-05-07 01:13 | 36.82432 | -77.55028 | 19947 ft | 298 kts | 247° |
| 2026-05-07 01:13 | 36.81472 | -77.57322 | 19945 ft | 298 kts | 247° |
| 2026-05-07 01:13 | 36.80514 | -77.59616 | 19945 ft | 298 kts | 247° |
| 2026-05-07 01:13 | 36.79557 | -77.61910 | 19952 ft | 297 kts | 247° |
| 2026-05-07 01:14 | 36.78603 | -77.64200 | 19959 ft | 297 kts | 247° |
| 2026-05-07 01:14 | 36.77540 | -77.66414 | 19951 ft | 302 kts | 236° |
| 2026-05-07 01:14 | 36.75992 | -77.68239 | 19654 ft | 314 kts | 223° |
| 2026-05-07 01:14 | 36.74110 | -77.69697 | 19321 ft | 320 kts | 217° |
| 2026-05-07 01:15 | 36.72169 | -77.71038 | 18969 ft | 316 kts | 217° |
| 2026-05-07 01:15 | 36.70257 | -77.72338 | 18588 ft | 310 kts | 217° |
| 2026-05-07 01:15 | 36.68381 | -77.73616 | 18213 ft | 305 kts | 217° |
| 2026-05-07 01:15 | 36.66534 | -77.74880 | 17793 ft | 301 kts | 217° |
| 2026-05-07 01:16 | 36.64709 | -77.76137 | 17373 ft | 297 kts | 217° |
| 2026-05-07 01:16 | 36.62897 | -77.77389 | 16966 ft | 299 kts | 217° |
| 2026-05-07 01:16 | 36.61094 | -77.78639 | 16572 ft | 302 kts | 216° |
| 2026-05-07 01:16 | 36.59257 | -77.79913 | 16170 ft | 301 kts | 216° |
| 2026-05-07 01:17 | 36.57410 | -77.81189 | 15768 ft | 298 kts | 216° |
| 2026-05-07 01:17 | 36.55625 | -77.82423 | 15384 ft | 297 kts | 216° |
| 2026-05-07 01:17 | 36.53826 | -77.83667 | 15012 ft | 295 kts | 216° |
| 2026-05-07 01:17 | 36.52036 | -77.84904 | 14635 ft | 294 kts | 215° |
| 2026-05-07 01:18 | 36.50241 | -77.86145 | 14255 ft | 293 kts | 215° |
| 2026-05-07 01:18 | 36.48465 | -77.87372 | 13867 ft | 292 kts | 215° |
| 2026-05-07 01:18 | 36.46692 | -77.88596 | 13472 ft | 291 kts | 215° |
| 2026-05-07 01:18 | 36.44926 | -77.89815 | 13062 ft | 290 kts | 215° |
| 2026-05-07 01:19 | 36.43164 | -77.91029 | 12664 ft | 288 kts | 214° |
| 2026-05-07 01:19 | 36.41414 | -77.92236 | 12254 ft | 287 kts | 214° |
| 2026-05-07 01:19 | 36.39697 | -77.93418 | 11863 ft | 285 kts | 214° |
| 2026-05-07 01:19 | 36.37950 | -77.94621 | 11467 ft | 283 kts | 214° |
| 2026-05-07 01:20 | 36.36254 | -77.95788 | 11122 ft | 279 kts | 214° |
| 2026-05-07 01:20 | 36.34575 | -77.96942 | 10886 ft | 273 kts | 214° |
| 2026-05-07 01:20 | 36.32929 | -77.98073 | 10639 ft | 267 kts | 215° |
| 2026-05-07 01:20 | 36.31300 | -77.99195 | 10409 ft | 268 kts | 214° |
| 2026-05-07 01:21 | 36.29659 | -78.00325 | 10182 ft | 271 kts | 214° |
| 2026-05-07 01:21 | 36.28015 | -78.01455 | 9941 ft | 268 kts | 214° |
| 2026-05-07 01:21 | 36.26411 | -78.02551 | 9682 ft | 257 kts | 214° |
| 2026-05-07 01:21 | 36.24875 | -78.03600 | 9419 ft | 247 kts | 215° |
| 2026-05-07 01:22 | 36.23396 | -78.04628 | 9155 ft | 240 kts | 215° |
| 2026-05-07 01:22 | 36.21938 | -78.05632 | 8904 ft | 239 kts | 215° |
| 2026-05-07 01:22 | 36.20587 | -78.06779 | 8631 ft | 234 kts | 235° |
| 2026-05-07 01:22 | 36.20007 | -78.08633 | 8425 ft | 238 kts | 263° |
| 2026-05-07 01:23 | 36.19854 | -78.10695 | 8193 ft | 242 kts | 264° |
| 2026-05-07 01:23 | 36.19646 | -78.12749 | 7944 ft | 239 kts | 261° |
| 2026-05-07 01:23 | 36.19349 | -78.14760 | 7720 ft | 244 kts | 258° |
| 2026-05-07 01:23 | 36.18958 | -78.16837 | 7577 ft | 248 kts | 256° |
| 2026-05-07 01:24 | 36.18516 | -78.18916 | 7372 ft | 250 kts | 255° |
| 2026-05-07 01:24 | 36.18053 | -78.20930 | 7168 ft | 237 kts | 255° |
| 2026-05-07 01:24 | 36.17593 | -78.22840 | 6981 ft | 228 kts | 254° |
| 2026-05-07 01:24 | 36.17132 | -78.24699 | 6805 ft | 225 kts | 254° |
| 2026-05-07 01:25 | 36.16668 | -78.26539 | 6622 ft | 223 kts | 253° |
| 2026-05-07 01:25 | 36.16202 | -78.28363 | 6460 ft | 222 kts | 253° |
| 2026-05-07 01:25 | 36.15733 | -78.30184 | 6274 ft | 224 kts | 253° |
| 2026-05-07 01:25 | 36.15415 | -78.31413 | 6164 ft | 227 kts | 253° |
| 2026-05-07 01:26 | 36.14927 | -78.33290 | 6064 ft | 230 kts | 253° |
| 2026-05-07 01:26 | 36.14434 | -78.35181 | 5978 ft | 231 kts | 253° |
| 2026-05-07 01:26 | 36.13939 | -78.37070 | 5852 ft | 229 kts | 253° |
| 2026-05-07 01:26 | 36.13453 | -78.38921 | 5767 ft | 224 kts | 253° |
| 2026-05-07 01:27 | 36.12974 | -78.40744 | 5646 ft | 223 kts | 253° |
| 2026-05-07 01:27 | 36.12495 | -78.42564 | 5523 ft | 222 kts | 252° |
| 2026-05-07 01:27 | 36.11826 | -78.44293 | 5387 ft | 224 kts | 240° |
| 2026-05-07 01:27 | 36.10986 | -78.45821 | 5265 ft | 224 kts | 238° |
| 2026-05-07 01:28 | 36.10096 | -78.47380 | 5128 ft | 224 kts | 237° |
| 2026-05-07 01:28 | 36.09261 | -78.48999 | 5039 ft | 220 kts | 247° |
| 2026-05-07 01:28 | 36.08715 | -78.50745 | 5014 ft | 216 kts | 250° |
| 2026-05-07 01:28 | 36.08100 | -78.52394 | 4983 ft | 208 kts | 237° |
| 2026-05-07 01:29 | 36.07220 | -78.53776 | 5020 ft | 202 kts | 233° |
| 2026-05-07 01:29 | 36.06298 | -78.55085 | 5015 ft | 201 kts | 231° |
| 2026-05-07 01:29 | 36.05344 | -78.56328 | 5016 ft | 199 kts | 230° |
| 2026-05-07 01:29 | 36.04364 | -78.57561 | 4829 ft | 204 kts | 229° |
| 2026-05-07 01:30 | 36.03361 | -78.58808 | 4593 ft | 204 kts | 229° |
| 2026-05-07 01:30 | 36.02365 | -78.60039 | 4321 ft | 200 kts | 229° |
| 2026-05-07 01:30 | 36.01394 | -78.61241 | 4070 ft | 196 kts | 228° |
| 2026-05-07 01:30 | 36.00442 | -78.62418 | 3810 ft | 192 kts | 228° |
| 2026-05-07 01:31 | 35.99500 | -78.63585 | 3560 ft | 192 kts | 229° |
| 2026-05-07 01:31 | 35.98553 | -78.64758 | 3316 ft | 194 kts | 227° |
| 2026-05-07 01:31 | 35.97598 | -78.65942 | 3073 ft | 195 kts | 226° |
| 2026-05-07 01:31 | 35.96642 | -78.67124 | 2809 ft | 193 kts | 227° |
| 2026-05-07 01:32 | 35.95700 | -78.68290 | 2564 ft | 189 kts | 227° |
| 2026-05-07 01:32 | 35.94814 | -78.69388 | 2303 ft | 174 kts | 226° |
| 2026-05-07 01:32 | 35.94012 | -78.70381 | 2104 ft | 153 kts | 226° |
| 2026-05-07 01:32 | 35.93305 | -78.71257 | 1915 ft | 137 kts | 226° |
| 2026-05-07 01:33 | 35.92663 | -78.72054 | 1736 ft | 127 kts | 225° |
| 2026-05-07 01:33 | 35.92038 | -78.72827 | 1596 ft | 129 kts | 225° |
| 2026-05-07 01:33 | 35.91382 | -78.73640 | 1411 ft | 137 kts | 225° |
| 2026-05-07 01:33 | 35.90714 | -78.74466 | 1244 ft | 138 kts | 225° |
| 2026-05-07 01:34 | 35.90025 | -78.75338 | 1044 ft | 146 kts | 224° |
| 2026-05-07 01:34 | 35.89311 | -78.76224 | 882 ft | 147 kts | 224° |
| 2026-05-07 01:34 | 35.88577 | -78.77131 | 681 ft | 150 kts | 223° |
| 2026-05-07 01:34 | 35.87842 | -78.78032 | 475 ft | 146 kts | 223° |
| 2026-05-07 01:35 | 35.87186 | -78.78841 | 432 ft | 115 kts | 225° |
| 2026-05-07 01:35 | 35.86779 | -78.79343 | 436 ft | 40 kts | 224° |
| 2026-05-07 01:35 | 35.86636 | -78.79523 | 435 ft | 33 kts | 224° |
| 2026-05-07 01:35 | 35.86503 | -78.79702 | 428 ft | 21 kts | 250° |
| 2026-05-07 01:36 | 35.86531 | -78.79796 | 432 ft | 5 kts | 323° |
| 2026-05-07 01:36 | 35.86563 | -78.79798 | 428 ft | 5 kts | 24° |
| 2026-05-07 01:36 | 35.86591 | -78.79770 | 426 ft | 5 kts | 45° |
| 2026-05-07 01:36 | 35.86607 | -78.79750 | 429 ft | 4 kts | 45° |
| 2026-05-07 01:37 | 35.86643 | -78.79707 | 434 ft | 11 kts | 45° |
| 2026-05-07 01:37 | 35.86710 | -78.79624 | 434 ft | 14 kts | 45° |
| 2026-05-07 01:37 | 35.86767 | -78.79553 | 426 ft | 10 kts | 36° |
| 2026-05-07 01:37 | 35.86823 | -78.79578 | 435 ft | 9 kts | 317° |
| 2026-05-07 01:38 | 35.86875 | -78.79640 | 433 ft | 11 kts | 315° |
| 2026-05-07 01:38 | 35.86939 | -78.79719 | 427 ft | 15 kts | 315° |
| 2026-05-07 01:38 | 35.87026 | -78.79828 | 418 ft | 21 kts | 314° |
| 2026-05-07 01:38 | 35.87134 | -78.79948 | 406 ft | 20 kts | 323° |
| 2026-05-07 01:39 | 35.87211 | -78.80009 | 403 ft | 11 kts | 333° |
| 2026-05-07 01:39 | 35.87258 | -78.80039 | 396 ft | 0 kts | 333° |
| 2026-05-07 01:39 | 35.87259 | -78.80039 | 396 ft | 1 kts | 333° |
| 2026-05-07 01:39 | 35.87299 | -78.80056 | 391 ft | 10 kts | 350° |
| 2026-05-07 01:40 | 35.87356 | -78.80013 | 391 ft | 11 kts | 50° |
| 2026-05-07 01:40 | 35.87408 | -78.79945 | 391 ft | 11 kts | 45° |
| 2026-05-07 01:40 | 35.87461 | -78.79883 | 391 ft | 10 kts | 42° |
| 2026-05-07 01:40 | 35.87512 | -78.79819 | 390 ft | 11 kts | 46° |
| 2026-05-07 01:41 | 35.87571 | -78.79747 | 390 ft | 13 kts | 45° |
| 2026-05-07 01:41 | 35.87639 | -78.79664 | 391 ft | 15 kts | 45° |
| 2026-05-07 01:41 | 35.87715 | -78.79570 | 391 ft | 16 kts | 44° |
| 2026-05-07 01:41 | 35.87785 | -78.79483 | 391 ft | 11 kts | 45° |
| 2026-05-07 01:42 | 35.87833 | -78.79425 | 391 ft | 10 kts | 45° |
| 2026-05-07 01:42 | 35.87848 | -78.79406 | 391 ft | 0 kts | 46° |
| 2026-05-07 01:42 | 35.87853 | -78.79400 | 391 ft | 2 kts | 45° |
| 2026-05-07 01:42 | 35.87863 | -78.79387 | 391 ft | 0 kts | 44° |
| 2026-05-07 01:44 | 35.87876 | -78.79371 | 391 ft | 8 kts | 45° |
| 2026-05-07 01:44 | 35.87929 | -78.79307 | 391 ft | 11 kts | 44° |
| 2026-05-07 01:44 | 35.87964 | -78.79257 | 391 ft | 3 kts | 74° |
| 2026-05-07 01:45 | 35.87959 | -78.79235 | 391 ft | 3 kts | 117° |
| 2026-05-07 01:45 | 35.87946 | -78.79220 | 391 ft | 3 kts | 140° |
| 2026-05-07 01:45 | 35.87935 | -78.79207 | 391 ft | 2 kts | 136° |
| 2026-05-07 01:45 | 35.87931 | -78.79203 | 391 ft | 1 kts | 136° |
| 2026-05-07 01:46 | 35.87928 | -78.79199 | 391 ft | 0 kts | 136° |